createdAt,value
2023-09-16T00:02:00.415Z,5.37
2023-09-16T00:04:27.821Z,3.47
2023-09-16T00:06:54.851Z,2.87
2023-09-16T00:09:22.234Z,3.83
2023-09-16T00:11:49.389Z,3.30
2023-09-16T00:14:19.708Z,2.28
2023-09-16T00:16:47.215Z,2.58
2023-09-16T00:19:14.443Z,3.30
2023-09-16T00:21:43.038Z,3.87
2023-09-16T00:24:11.298Z,4.23
2023-09-16T00:26:40.517Z,3.00
2023-09-16T00:29:08.106Z,2.67
2023-09-16T00:31:35.674Z,3.70
2023-09-16T00:34:02.718Z,3.17
2023-09-16T00:36:30.375Z,2.43
2023-09-16T00:38:57.662Z,3.90
2023-09-16T00:41:24.887Z,3.55
2023-09-16T00:43:52.035Z,3.42
2023-09-16T00:46:19.262Z,2.37
2023-09-16T00:48:47.126Z,2.67
2023-09-16T00:51:17.286Z,3.10
2023-09-16T00:53:46.258Z,2.55
2023-09-16T00:56:15.186Z,2.80
2023-09-16T00:58:42.691Z,6.87
2023-09-16T01:01:11.091Z,2.20
2023-09-16T01:03:38.907Z,2.53
2023-09-16T01:06:07.624Z,4.40
2023-09-16T01:08:38.312Z,3.67
2023-09-16T01:11:06.416Z,2.87
2023-09-16T01:13:34.827Z,2.67
2023-09-16T01:16:14.998Z,3.00
2023-09-16T01:18:47.832Z,2.05
2023-09-16T01:21:16.579Z,2.30
2023-09-16T01:23:45.336Z,2.60
2023-09-16T01:26:12.251Z,3.50
2023-09-16T01:28:39.683Z,4.03
2023-09-16T01:31:08.711Z,2.72
2023-09-16T01:33:45.144Z,2.50
2023-09-16T01:36:16.000Z,2.53
2023-09-16T01:38:45.697Z,2.47
2023-09-16T01:41:14.608Z,3.83
2023-09-16T01:43:42.186Z,3.25
2023-09-16T01:46:11.578Z,1.85
2023-09-16T01:48:46.542Z,2.30
2023-09-16T01:51:15.457Z,1.97
2023-09-16T01:53:42.806Z,2.05
2023-09-16T01:56:09.964Z,2.30
2023-09-16T01:58:37.107Z,3.37
2023-09-16T02:01:12.611Z,2.53
2023-09-16T02:03:40.124Z,1.87
2023-09-16T02:06:07.880Z,4.53
2023-09-16T02:08:35.446Z,4.10
2023-09-16T02:11:03.843Z,1.90
2023-09-16T02:13:33.662Z,3.83
2023-09-16T02:16:00.729Z,1.40
2023-09-16T02:18:28.004Z,2.10
2023-09-16T02:20:55.092Z,2.25
2023-09-16T02:23:23.269Z,2.42
2023-09-16T02:25:50.362Z,3.03
2023-09-16T02:28:17.612Z,2.53
2023-09-16T02:30:44.561Z,2.70
2023-09-16T02:33:11.803Z,3.22
2023-09-16T02:35:40.990Z,5.43
2023-09-16T02:38:08.460Z,3.17
2023-09-16T02:40:40.862Z,2.43
2023-09-16T02:43:08.548Z,4.20
2023-09-16T02:45:42.884Z,3.40
2023-09-16T02:48:10.173Z,2.35
2023-09-16T02:50:40.888Z,3.72
2023-09-16T02:53:07.798Z,2.33
2023-09-16T02:55:35.056Z,5.22
2023-09-16T02:58:02.544Z,1.80
2023-09-16T03:00:30.166Z,3.85
2023-09-16T03:02:57.772Z,2.67
2023-09-16T03:05:25.074Z,3.83
2023-09-16T03:07:52.466Z,4.32
2023-09-16T03:10:19.974Z,4.45
2023-09-16T03:12:47.126Z,2.72
2023-09-16T03:15:14.363Z,2.03
2023-09-16T03:17:51.008Z,2.57
2023-09-16T03:20:21.656Z,1.90
2023-09-16T03:22:48.817Z,2.37
2023-09-16T03:25:15.969Z,2.45
2023-09-16T03:27:42.949Z,2.12
2023-09-16T03:30:10.384Z,2.37
2023-09-16T03:32:40.987Z,2.33
2023-09-16T03:35:08.154Z,2.37
2023-09-16T03:37:35.308Z,2.35
2023-09-16T03:40:02.507Z,2.67
2023-09-16T03:42:29.542Z,1.90
2023-09-16T03:44:56.735Z,2.90
2023-09-16T03:47:23.843Z,4.75
2023-09-16T03:49:50.727Z,2.78
2023-09-16T03:52:18.182Z,2.05
2023-09-16T03:54:45.404Z,5.43
2023-09-16T03:57:12.535Z,2.12
2023-09-16T03:59:39.691Z,2.12
2023-09-16T04:02:06.865Z,3.67
2023-09-16T04:04:34.097Z,3.67
2023-09-16T04:07:01.290Z,3.67
2023-09-16T04:09:28.649Z,3.10
2023-09-16T04:11:55.508Z,4.35
2023-09-16T04:14:22.402Z,3.10
2023-09-16T04:16:49.873Z,2.67
2023-09-16T04:19:17.022Z,5.23
2023-09-16T04:21:44.082Z,2.47
2023-09-16T04:24:13.053Z,2.53
2023-09-16T04:26:40.204Z,2.37
2023-09-16T04:29:07.331Z,4.55
2023-09-16T04:31:34.251Z,3.27
2023-09-16T04:34:01.642Z,3.35
2023-09-16T04:36:28.681Z,2.90
2023-09-16T04:38:55.876Z,1.98
2023-09-16T04:41:23.087Z,6.00
2023-09-16T04:43:51.266Z,3.63
2023-09-16T04:46:19.758Z,4.40
2023-09-16T04:48:48.301Z,4.03
2023-09-16T04:51:15.819Z,4.05
2023-09-16T04:53:42.794Z,2.10
2023-09-16T04:56:10.457Z,2.77
2023-09-16T04:58:38.183Z,4.60
2023-09-16T05:01:07.907Z,3.47
2023-09-16T05:03:35.290Z,3.22
2023-09-16T05:06:03.758Z,2.87
2023-09-16T05:08:32.249Z,2.77
2023-09-16T05:10:59.233Z,3.70
2023-09-16T05:13:26.745Z,3.33
2023-09-16T05:15:53.959Z,3.58
2023-09-16T05:18:21.127Z,1.90
2023-09-16T05:20:52.034Z,2.43
2023-09-16T05:23:19.734Z,2.37
2023-09-16T05:25:50.984Z,3.00
2023-09-16T05:28:18.637Z,4.85
2023-09-16T05:30:46.238Z,2.37
2023-09-16T05:33:13.522Z,4.30
2023-09-16T05:35:41.807Z,1.65
2023-09-16T05:38:09.470Z,2.42
2023-09-16T05:40:37.579Z,3.22
2023-09-16T05:43:04.911Z,1.92
2023-09-16T05:45:32.601Z,3.63
2023-09-16T05:48:04.032Z,2.35
2023-09-16T05:50:32.161Z,2.95
2023-09-16T05:52:59.214Z,2.53
2023-09-16T05:55:26.465Z,3.17
2023-09-16T05:57:53.721Z,3.20
2023-09-16T06:00:20.890Z,2.40
2023-09-16T06:02:47.851Z,2.65
2023-09-16T06:05:14.985Z,4.12
2023-09-16T06:07:43.204Z,2.78
2023-09-16T06:10:11.155Z,3.97
2023-09-16T06:12:38.290Z,2.50
2023-09-16T06:15:05.834Z,2.00
2023-09-16T06:17:32.685Z,2.80
2023-09-16T06:19:59.943Z,3.28
2023-09-16T06:22:27.545Z,4.10
2023-09-16T06:24:55.377Z,4.60
2023-09-16T06:27:23.088Z,4.00
2023-09-16T06:29:52.026Z,4.10
2023-09-16T06:34:47.555Z,2.03
2023-09-16T06:37:14.681Z,2.90
2023-09-16T06:39:41.923Z,2.22
2023-09-16T06:42:09.245Z,2.25
2023-09-16T06:44:36.384Z,4.25
2023-09-16T06:47:03.753Z,2.73
2023-09-16T06:49:30.954Z,2.40
2023-09-16T06:51:57.871Z,3.35
2023-09-16T06:54:25.031Z,2.35
2023-09-16T06:56:52.564Z,2.85
2023-09-16T06:59:19.437Z,3.43
2023-09-16T07:01:46.359Z,2.95
2023-09-16T07:04:13.630Z,3.97
2023-09-16T07:06:40.809Z,2.37
2023-09-16T07:09:08.199Z,2.60
2023-09-16T07:11:35.087Z,2.20
2023-09-16T07:14:02.508Z,1.95
2023-09-16T07:16:44.727Z,3.67
2023-09-16T07:19:12.081Z,2.65
2023-09-16T07:21:39.343Z,4.30
2023-09-16T07:24:06.896Z,2.13
2023-09-16T07:26:33.958Z,1.98
2023-09-16T07:29:01.651Z,3.85
2023-09-16T07:31:30.142Z,2.85
2023-09-16T07:33:57.466Z,2.47
2023-09-16T07:36:24.687Z,5.60
2023-09-16T07:38:52.162Z,3.55
2023-09-16T07:41:19.889Z,2.25
2023-09-16T07:43:47.045Z,3.42
2023-09-16T07:46:14.283Z,2.97
2023-09-16T07:48:41.529Z,3.23
2023-09-16T07:51:08.911Z,1.67
2023-09-16T07:53:36.022Z,2.03
2023-09-16T07:56:03.189Z,3.55
2023-09-16T07:58:30.668Z,2.08
2023-09-16T08:00:57.947Z,2.03
2023-09-16T08:03:25.267Z,3.50
2023-09-16T08:05:54.856Z,4.10
2023-09-16T08:08:22.016Z,2.60
2023-09-16T08:10:51.359Z,3.30
2023-09-16T08:13:19.555Z,3.30
2023-09-16T08:15:47.067Z,5.28
2023-09-16T08:18:14.506Z,3.12
2023-09-16T08:20:41.978Z,4.18
2023-09-16T08:23:10.572Z,4.22
2023-09-16T08:25:37.606Z,2.17
2023-09-16T08:28:05.568Z,2.58
2023-09-16T08:30:32.714Z,2.65
2023-09-16T08:32:59.786Z,3.95
2023-09-16T08:35:27.959Z,3.70
2023-09-16T08:38:00.186Z,4.83
2023-09-16T08:40:30.663Z,2.92
2023-09-16T08:43:15.696Z,4.70
2023-09-16T08:45:57.076Z,2.97
2023-09-16T08:48:26.817Z,3.92
2023-09-16T08:50:57.099Z,3.90
2023-09-16T08:53:26.482Z,3.70
2023-09-16T08:55:53.946Z,4.68
2023-09-16T08:58:22.416Z,3.95
2023-09-16T09:00:49.709Z,4.78
2023-09-16T09:03:17.343Z,2.57
2023-09-16T09:05:46.004Z,3.15
2023-09-16T09:08:13.249Z,4.45
2023-09-16T09:10:43.711Z,4.70
2023-09-16T09:13:14.302Z,4.40
2023-09-16T09:15:42.961Z,3.73
2023-09-16T09:18:12.579Z,3.67
2023-09-16T09:20:39.987Z,3.60
2023-09-16T09:23:07.271Z,4.12
2023-09-16T09:25:37.437Z,2.28
2023-09-16T09:28:06.314Z,4.37
2023-09-16T09:30:33.663Z,2.85
2023-09-16T09:33:01.792Z,4.07
2023-09-16T09:35:31.277Z,3.15
2023-09-16T09:37:59.360Z,3.05
2023-09-16T09:40:27.841Z,3.87
2023-09-16T09:42:58.872Z,3.28
2023-09-16T09:45:28.670Z,3.25
2023-09-16T09:47:56.926Z,5.80
2023-09-16T09:50:24.873Z,6.18
2023-09-16T09:52:54.819Z,3.27
2023-09-16T09:55:29.363Z,5.35
2023-09-16T09:57:57.170Z,2.87
2023-09-16T10:00:25.377Z,3.47
2023-09-16T10:02:52.534Z,4.68
2023-09-16T10:05:21.528Z,4.53
2023-09-16T10:07:49.228Z,3.83
2023-09-16T10:10:21.373Z,4.87
2023-09-16T10:12:54.411Z,2.05
2023-09-16T10:15:26.720Z,2.37
2023-09-16T10:17:54.820Z,2.67
2023-09-16T10:20:23.220Z,4.82
2023-09-16T10:22:51.778Z,6.00
2023-09-16T10:25:19.341Z,2.97
2023-09-16T10:27:53.365Z,2.62
2023-09-16T10:30:21.508Z,3.90
2023-09-16T10:32:49.381Z,3.83
2023-09-16T10:35:17.742Z,2.40
2023-09-16T10:37:45.685Z,3.05
2023-09-16T10:40:14.940Z,3.92
2023-09-16T10:42:43.190Z,2.30
2023-09-16T10:45:13.031Z,3.17
2023-09-16T10:47:40.842Z,3.75
2023-09-16T10:50:08.577Z,4.12
2023-09-16T10:52:48.786Z,3.17
2023-09-16T10:55:23.973Z,4.30
2023-09-16T10:58:02.446Z,2.90
2023-09-16T11:00:38.814Z,3.47
2023-09-16T11:03:06.740Z,4.65
2023-09-16T11:05:36.191Z,3.05
2023-09-16T11:08:03.909Z,4.93
2023-09-16T11:10:32.078Z,3.75
2023-09-16T11:13:01.133Z,2.60
2023-09-16T11:15:35.872Z,3.08
2023-09-16T11:18:04.734Z,2.60
2023-09-16T11:20:37.327Z,3.47
2023-09-16T11:23:08.882Z,3.70
2023-09-16T11:25:38.386Z,2.55
2023-09-16T11:28:17.793Z,3.97
2023-09-16T11:30:59.793Z,3.87
2023-09-16T11:33:40.802Z,4.67
2023-09-16T11:36:14.107Z,7.62
2023-09-16T11:38:56.627Z,4.70
2023-09-16T11:41:23.902Z,4.10
2023-09-16T11:43:51.493Z,3.60
2023-09-16T11:46:18.900Z,4.83
2023-09-16T11:48:57.342Z,3.28
2023-09-16T11:51:26.767Z,6.55
2023-09-16T11:53:55.803Z,2.90
2023-09-16T11:56:25.026Z,3.62
2023-09-16T11:58:56.714Z,4.07
2023-09-16T12:01:31.440Z,2.47
2023-09-16T12:04:00.481Z,3.25
2023-09-16T12:06:29.168Z,2.70
2023-09-16T12:08:58.516Z,4.05
2023-09-16T12:11:28.442Z,3.17
2023-09-16T12:13:56.255Z,7.80
2023-09-16T12:16:24.304Z,3.03
2023-09-16T12:18:52.114Z,3.10
2023-09-16T12:21:19.985Z,4.25
2023-09-16T12:23:49.276Z,2.87
2023-09-16T12:26:16.723Z,2.65
2023-09-16T12:28:44.120Z,3.55
2023-09-16T12:31:12.666Z,2.55
2023-09-16T12:33:41.877Z,2.80
2023-09-16T12:36:09.792Z,3.00
2023-09-16T12:38:39.187Z,5.78
2023-09-16T12:41:07.023Z,4.30
2023-09-16T12:43:35.158Z,3.45
2023-09-16T12:46:05.451Z,4.15
2023-09-16T12:48:34.224Z,2.27
2023-09-16T12:51:02.300Z,3.03
2023-09-16T12:53:31.423Z,4.90
2023-09-16T12:55:58.502Z,5.25
2023-09-16T12:58:25.592Z,5.10
2023-09-16T13:00:53.203Z,7.57
2023-09-16T13:03:24.420Z,3.90
2023-09-16T13:06:01.080Z,4.78
2023-09-16T13:08:28.479Z,2.55
2023-09-16T13:10:55.777Z,2.70
2023-09-16T13:13:24.137Z,3.10
2023-09-16T13:15:52.683Z,2.75
2023-09-16T13:18:21.235Z,5.90
2023-09-16T13:20:54.447Z,2.22
2023-09-16T13:23:26.723Z,3.50
2023-09-16T13:25:57.360Z,5.57
2023-09-16T13:28:25.719Z,2.65
2023-09-16T13:30:54.882Z,3.50
2023-09-16T13:33:55.372Z,2.45
2023-09-16T13:36:24.921Z,4.75
2023-09-16T13:38:53.021Z,4.33
2023-09-16T13:41:22.340Z,4.30
2023-09-16T13:43:49.869Z,3.47
2023-09-16T13:46:18.519Z,4.60
2023-09-16T13:48:50.129Z,3.28
2023-09-16T13:51:18.834Z,4.73
2023-09-16T13:53:46.256Z,2.62
2023-09-16T13:56:14.680Z,3.78
2023-09-16T13:58:42.755Z,4.18
2023-09-16T14:01:10.345Z,4.65
2023-09-16T14:03:37.821Z,3.87
2023-09-16T14:06:07.039Z,7.07
2023-09-16T14:08:36.069Z,5.62
2023-09-16T14:11:06.289Z,3.47
2023-09-16T14:13:34.351Z,3.62
2023-09-16T14:16:01.762Z,4.97
2023-09-16T14:18:29.487Z,4.12
2023-09-16T14:20:56.973Z,3.35
2023-09-16T14:23:24.539Z,2.70
2023-09-16T14:25:52.469Z,3.42
2023-09-16T14:28:20.140Z,7.40
2023-09-16T14:30:47.673Z,4.28
2023-09-16T14:33:14.997Z,6.10
2023-09-16T14:35:42.712Z,3.87
2023-09-16T14:38:10.197Z,4.00
2023-09-16T14:40:38.597Z,4.23
2023-09-16T14:43:07.758Z,4.30
2023-09-16T14:45:35.233Z,4.30
2023-09-16T14:48:04.195Z,5.75
2023-09-16T14:50:33.307Z,3.42
2023-09-16T14:53:02.943Z,4.07
2023-09-16T14:55:33.576Z,3.45
2023-09-16T14:58:01.907Z,4.30
2023-09-16T15:00:30.150Z,3.20
2023-09-16T15:02:57.756Z,6.45
2023-09-16T15:05:25.403Z,4.00
2023-09-16T15:07:53.344Z,3.15
2023-09-16T15:10:21.316Z,3.67
2023-09-16T15:12:48.736Z,2.55
2023-09-16T15:15:16.252Z,3.97
2023-09-16T15:17:43.838Z,3.27
2023-09-16T15:20:14.516Z,4.47
2023-09-16T15:22:42.250Z,3.03
2023-09-16T15:25:10.108Z,4.78
2023-09-16T15:27:37.647Z,4.28
2023-09-16T15:30:08.823Z,4.23
2023-09-16T15:32:46.169Z,2.70
2023-09-16T15:35:14.791Z,2.42
2023-09-16T15:37:42.717Z,6.72
2023-09-16T15:40:10.852Z,2.50
2023-09-16T15:42:39.252Z,4.77
2023-09-16T15:45:07.054Z,3.50
2023-09-16T15:47:35.025Z,6.30
2023-09-16T15:50:02.562Z,5.03
2023-09-16T15:52:30.182Z,8.32
2023-09-16T15:54:57.732Z,5.87
2023-09-16T15:57:25.285Z,3.00
2023-09-16T15:59:52.279Z,4.97
2023-09-16T16:02:19.764Z,3.97
2023-09-16T16:04:47.198Z,6.40
2023-09-16T16:07:16.931Z,3.77
2023-09-16T16:09:44.677Z,3.75
2023-09-16T16:12:12.167Z,6.85
2023-09-16T16:14:39.637Z,6.05
2023-09-16T16:17:21.541Z,8.45
2023-09-16T16:19:49.618Z,4.30
2023-09-16T16:22:18.006Z,5.00
2023-09-16T16:24:45.361Z,8.25
2023-09-16T16:27:12.456Z,5.72
2023-09-16T16:29:41.657Z,3.40
2023-09-16T16:32:08.897Z,6.70
2023-09-16T16:34:36.545Z,3.28
2023-09-16T16:37:04.454Z,4.50
2023-09-16T16:39:31.407Z,6.47
2023-09-16T16:41:58.898Z,7.28
2023-09-16T16:44:26.430Z,6.27
2023-09-16T16:46:59.856Z,4.62
2023-09-16T16:49:29.985Z,5.53
2023-09-16T16:51:57.673Z,6.28
2023-09-16T16:54:25.817Z,7.65
2023-09-16T16:56:53.041Z,11.47
2023-09-16T16:59:21.089Z,7.78
2023-09-16T17:01:48.790Z,6.65
2023-09-16T17:04:16.620Z,7.50
2023-09-16T17:06:44.205Z,8.98
2023-09-16T17:09:12.793Z,6.27
2023-09-16T17:11:40.371Z,8.07
2023-09-16T17:14:07.416Z,8.65
2023-09-16T17:16:34.631Z,8.68
2023-09-16T17:19:02.362Z,6.80
2023-09-16T17:21:29.909Z,7.73
2023-09-16T17:23:57.337Z,6.57
2023-09-16T17:26:24.509Z,9.75
2023-09-16T17:28:54.294Z,8.20
2023-09-16T17:31:23.713Z,5.95
2023-09-16T17:33:51.411Z,12.10
2023-09-16T17:36:19.401Z,12.37
2023-09-16T17:38:50.907Z,6.15
2023-09-16T17:41:19.565Z,5.90
2023-09-16T17:43:49.180Z,7.40
2023-09-16T17:46:18.051Z,6.40
2023-09-16T17:48:45.910Z,5.55
2023-09-16T17:51:13.675Z,8.73
2023-09-16T17:53:41.127Z,8.02
2023-09-16T17:56:08.375Z,7.12
2023-09-16T17:58:37.529Z,8.03
2023-09-16T18:01:05.723Z,3.47
2023-09-16T18:03:33.443Z,8.90
2023-09-16T18:06:00.896Z,4.03
2023-09-16T18:08:29.978Z,4.37
2023-09-16T18:10:57.180Z,5.53
2023-09-16T18:13:25.009Z,6.43
2023-09-16T18:15:53.269Z,4.28
2023-09-16T18:18:20.511Z,3.80
2023-09-16T18:20:48.513Z,8.93
2023-09-16T18:23:15.832Z,8.17
2023-09-16T18:25:50.635Z,5.10
2023-09-16T18:28:20.949Z,8.02
2023-09-16T18:30:51.809Z,7.62
2023-09-16T18:33:22.400Z,9.10
2023-09-16T18:35:50.385Z,5.70
2023-09-16T18:38:20.713Z,6.95
2023-09-16T18:40:50.422Z,8.23
2023-09-16T18:43:19.254Z,6.90
2023-09-16T18:45:47.397Z,8.02
2023-09-16T18:48:18.191Z,9.53
2023-09-16T18:50:46.156Z,6.43
2023-09-16T18:53:14.299Z,9.75
2023-09-16T18:55:45.860Z,5.62
2023-09-16T18:58:14.791Z,6.65
2023-09-16T19:00:43.542Z,11.40
2023-09-16T19:03:11.727Z,11.90
2023-09-16T19:05:42.708Z,10.73
2023-09-16T19:08:13.839Z,7.85
2023-09-16T19:10:46.080Z,10.07
2023-09-16T19:13:14.701Z,7.97
2023-09-16T19:15:42.508Z,8.43
2023-09-16T19:18:15.088Z,16.12
2023-09-16T19:20:44.341Z,9.05
2023-09-16T19:23:12.436Z,6.25
2023-09-16T19:25:41.177Z,6.27
2023-09-16T19:28:11.208Z,9.20
2023-09-16T19:30:39.332Z,11.77
2023-09-16T19:33:08.861Z,9.88
2023-09-16T19:35:36.442Z,8.38
2023-09-16T19:38:05.324Z,6.87
2023-09-16T19:40:35.046Z,8.88
2023-09-16T19:43:03.186Z,9.50
2023-09-16T19:45:31.847Z,7.75
2023-09-16T19:48:00.092Z,7.30
2023-09-16T19:50:28.004Z,8.83
2023-09-16T19:52:55.564Z,7.65
2023-09-16T19:55:26.912Z,7.10
2023-09-16T19:57:54.711Z,5.97
2023-09-16T20:00:23.682Z,8.27
2023-09-16T20:02:53.742Z,8.27
2023-09-16T20:05:23.201Z,6.12
2023-09-16T20:07:51.351Z,8.38
2023-09-16T20:10:19.386Z,6.07
2023-09-16T20:12:47.266Z,5.93
2023-09-16T20:15:16.468Z,8.27
2023-09-16T20:17:44.502Z,4.75
2023-09-16T20:20:13.443Z,8.57
2023-09-16T20:22:42.502Z,6.65
2023-09-16T20:25:11.474Z,5.78
2023-09-16T20:27:39.519Z,7.47
2023-09-16T20:30:08.450Z,5.65
2023-09-16T20:32:36.573Z,7.25
2023-09-16T20:35:04.600Z,7.40
2023-09-16T20:37:32.500Z,6.90
2023-09-16T20:40:00.285Z,5.60
2023-09-16T20:42:28.959Z,9.48
2023-09-16T20:44:56.500Z,8.20
2023-09-16T20:47:23.487Z,8.52
2023-09-16T20:49:51.133Z,16.20
2023-09-16T20:52:18.603Z,7.20
2023-09-16T20:54:46.358Z,6.07
2023-09-16T20:57:13.924Z,7.15
2023-09-16T20:59:41.313Z,7.80
2023-09-16T21:02:08.698Z,10.13
2023-09-16T21:04:35.686Z,8.70
2023-09-16T21:07:02.616Z,11.40
2023-09-16T21:09:29.812Z,9.27
2023-09-16T21:11:57.506Z,7.75
2023-09-16T21:14:24.721Z,9.40
2023-09-16T21:16:53.047Z,8.93
2023-09-16T21:19:20.382Z,8.40
2023-09-16T21:21:47.272Z,8.30
2023-09-16T21:24:14.734Z,7.30
2023-09-16T21:26:41.910Z,7.03
2023-09-16T21:29:09.221Z,9.17
2023-09-16T21:31:44.002Z,6.15
2023-09-16T21:34:19.349Z,6.40
2023-09-16T21:36:46.423Z,7.55
2023-09-16T21:39:13.629Z,7.53
2023-09-16T21:41:41.111Z,6.37
2023-09-16T21:44:08.109Z,9.25
2023-09-16T21:46:36.461Z,7.87
2023-09-16T21:49:03.684Z,6.95
2023-09-16T21:51:30.576Z,7.57
2023-09-16T21:53:57.950Z,10.03
2023-09-16T21:56:25.261Z,9.05
2023-09-16T21:58:52.663Z,9.65
2023-09-16T22:01:19.794Z,9.20
2023-09-16T22:03:47.085Z,8.07
2023-09-16T22:06:14.317Z,6.33
2023-09-16T22:08:41.467Z,5.47
2023-09-16T22:11:09.134Z,10.93
2023-09-16T22:13:36.485Z,5.93
2023-09-16T22:16:03.589Z,6.00
2023-09-16T22:18:30.480Z,9.23
2023-09-16T22:20:57.940Z,8.75
2023-09-16T22:23:25.109Z,8.35
2023-09-16T22:26:01.953Z,7.30
2023-09-16T22:28:29.144Z,10.52
2023-09-16T22:30:56.205Z,6.57
2023-09-16T22:33:23.387Z,6.37
2023-09-16T22:35:50.620Z,6.90
2023-09-16T22:38:18.203Z,7.10
2023-09-16T22:40:45.479Z,6.20
2023-09-16T22:43:12.802Z,6.27
2023-09-16T22:45:39.961Z,5.60
2023-09-16T22:48:07.054Z,6.40
2023-09-16T22:50:34.219Z,6.47
2023-09-16T22:53:01.202Z,6.82
2023-09-16T22:55:29.211Z,6.20
2023-09-16T22:57:56.491Z,6.60
2023-09-16T23:00:23.649Z,7.18
2023-09-16T23:02:51.094Z,5.78
2023-09-16T23:05:18.077Z,6.00
2023-09-16T23:07:45.306Z,5.60
2023-09-16T23:10:12.251Z,7.75
2023-09-16T23:12:39.440Z,7.18
2023-09-16T23:15:06.936Z,8.57
2023-09-16T23:17:34.209Z,6.15
2023-09-16T23:20:01.708Z,8.03
2023-09-16T23:22:28.661Z,6.70
2023-09-16T23:24:55.668Z,6.00
2023-09-16T23:27:22.814Z,7.07
2023-09-16T23:29:50.059Z,8.32
2023-09-16T23:32:17.185Z,6.03
2023-09-16T23:34:44.618Z,7.22
2023-09-16T23:37:11.885Z,8.35
2023-09-16T23:39:38.802Z,6.43
2023-09-16T23:42:06.602Z,7.72
2023-09-16T23:44:33.802Z,5.70
2023-09-16T23:47:01.061Z,5.95
2023-09-16T23:49:28.345Z,7.28
2023-09-16T23:51:55.875Z,6.32
2023-09-16T23:54:23.007Z,5.57
2023-09-16T23:56:49.940Z,6.80
2023-09-16T23:59:17.842Z,8.45
